Time;durP1;ratioP1;P1;durP2;ratioP2;P2;SDS_P1;SDS_P2;PMS_P1;PMS_P2;Temp;Humidity;BMP_temperature;BMP_pressure;BME280_temperature;BME280_humidity;BME280_pressure;Samples;Min_cycle;Max_cycle;Signal;HPM_P1;HPM_P2
2022/09/19 00:02:56;;;;;;;18.25;3.60;;;13.20;99.90;;;-147.18;100.00;67318.16;4965042;28;20792;-91
2022/09/19 00:06:23;;;;;;;19.95;3.83;;;13.00;99.90;;;-147.18;100.00;67318.16;4953450;28;20046;-91
2022/09/19 00:09:49;;;;;;;10.90;3.33;;;13.20;99.90;;;-147.18;100.00;67318.16;4969444;28;20051;-91
2022/09/19 00:13:14;;;;;;;11.02;3.13;;;13.00;99.90;;;-147.18;100.00;67318.16;4969101;28;20057;-90
2022/09/19 00:16:48;;;;;;;11.85;3.10;;;13.00;99.90;;;-147.18;100.00;67318.16;4970435;28;20079;-90
2022/09/19 00:20:16;;;;;;;14.52;3.33;;;13.00;99.90;;;-147.18;100.00;67318.16;4969572;28;20038;-90
2022/09/19 00:27:28;;;;;;;13.65;3.17;;;13.00;99.90;;;-147.18;100.00;67318.16;4970633;28;20100;-92
2022/09/19 00:30:56;;;;;;;13.82;3.70;;;13.00;99.90;;;-147.18;100.00;67318.16;4973058;28;20047;-90
2022/09/19 00:34:23;;;;;;;14.38;3.33;;;13.00;99.90;;;-147.18;100.00;67318.16;4973307;28;20078;-91
2022/09/19 00:37:49;;;;;;;20.88;3.95;;;13.10;99.90;;;-147.18;100.00;67318.16;4968983;28;20083;-91
2022/09/19 00:41:16;;;;;;;18.88;3.95;;;13.10;99.90;;;-147.18;100.00;67318.16;4973803;28;20046;-92
2022/09/19 00:44:58;;;;;;;16.60;3.83;;;13.00;99.90;;;-147.18;100.00;67318.16;4973288;28;20065;-90
2022/09/19 00:48:33;;;;;;;12.35;3.17;;;13.00;99.90;;;-147.18;100.00;67318.16;4972922;28;20042;-91
2022/09/19 00:52:02;;;;;;;9.23;3.35;;;13.10;99.90;;;-147.18;100.00;67318.16;5008131;28;20038;-77
2022/09/19 00:55:31;;;;;;;15.93;3.72;;;13.10;99.90;;;-147.18;100.00;67318.16;5006836;28;20050;-77
2022/09/19 00:59:07;;;;;;;15.45;4.43;;;13.00;99.90;;;-147.18;100.00;67318.16;4987002;28;20084;-77
2022/09/19 01:02:34;;;;;;;17.42;3.75;;;13.10;99.90;;;-147.18;100.00;67318.16;4984903;28;20038;-77
2022/09/19 01:06:06;;;;;;;16.10;3.50;;;13.10;99.90;;;-147.18;100.00;67318.16;4982569;28;20042;-77
2022/09/19 01:09:45;;;;;;;;;;;13.10;99.90;;;-147.18;100.00;67318.16;4983764;28;20042;-77
2022/09/19 01:13:29;;;;;;;26.08;3.88;;;13.10;99.90;;;-147.18;100.00;67318.16;4979942;28;19973;-77
2022/09/19 01:17:06;;;;;;;15.93;3.85;;;13.10;99.90;;;-147.18;100.00;67318.16;4963993;28;20047;-77
2022/09/19 01:25:46;;;;;;;17.92;3.58;;;13.10;99.90;;;-147.18;100.00;67318.16;4986740;28;20057;-77
2022/09/19 01:29:20;;;;;;;16.67;3.80;;;13.00;99.90;;;-147.18;100.00;67318.16;4978906;28;21343;-78
2022/09/19 01:32:52;;;;;;;23.88;4.15;;;13.10;99.90;;;-147.18;100.00;67318.16;4987540;28;20108;-77
2022/09/19 01:36:26;;;;;;;20.02;4.80;;;13.10;99.90;;;-147.18;100.00;67318.16;4986408;28;20508;-77
2022/09/19 01:39:55;;;;;;;24.52;4.72;;;13.10;99.90;;;-147.18;100.00;67318.16;4972619;28;20062;-78
2022/09/19 01:43:23;;;;;;;22.75;4.40;;;13.10;99.90;;;-147.18;100.00;67318.16;4986473;28;20888;-77
2022/09/19 01:46:53;;;;;;;28.77;5.22;;;13.10;99.90;;;-147.18;100.00;67318.16;4976978;28;20133;-77
2022/09/19 01:50:35;;;;;;;16.38;3.70;;;13.10;99.90;;;-147.18;100.00;67318.16;4973219;28;20093;-77
2022/09/19 01:54:15;;;;;;;17.45;3.90;;;13.20;99.90;;;-147.18;100.00;67318.16;4978777;28;20128;-77
2022/09/19 01:58:10;;;;;;;24.80;4.00;;;13.10;99.90;;;-147.18;100.00;67318.16;4985996;28;20062;-77
2022/09/19 02:01:45;;;;;;;17.15;3.55;;;13.10;99.90;;;-147.18;100.00;67318.16;4969962;28;20078;-77
2022/09/19 02:05:22;;;;;;;22.02;3.90;;;13.20;99.90;;;-147.18;100.00;67318.16;4972634;28;20100;-77
2022/09/19 02:08:58;;;;;;;24.35;3.80;;;13.20;99.90;;;-147.18;100.00;67318.16;4991101;28;20120;-76
2022/09/19 02:12:41;;;;;;;23.50;4.13;;;13.10;99.90;;;-147.18;100.00;67318.16;4983734;28;20127;-77
2022/09/19 02:16:24;;;;;;;18.20;3.53;;;13.10;99.90;;;-147.18;100.00;67318.16;4957876;28;20057;-77
2022/09/19 02:19:55;;;;;;;19.48;4.15;;;13.00;99.90;;;-147.18;100.00;67318.16;4969508;28;20093;-76
2022/09/19 02:23:28;;;;;;;19.63;3.77;;;13.10;99.90;;;-147.18;100.00;67318.16;4985978;28;20043;-75
2022/09/19 02:26:55;;;;;;;21.77;3.70;;;13.00;99.90;;;-147.18;100.00;67318.16;4986949;28;20060;-77
2022/09/19 02:30:25;;;;;;;20.35;3.40;;;13.00;99.90;;;-147.18;100.00;67318.16;4984759;28;20045;-75
2022/09/19 02:33:56;;;;;;;14.27;3.50;;;13.00;99.90;;;-147.18;100.00;67318.16;4978078;28;20074;-75
2022/09/19 02:37:29;;;;;;;21.77;5.03;;;13.00;99.90;;;-147.18;100.00;67318.16;4982911;28;20050;-76
2022/09/19 02:41:04;;;;;;;14.45;3.63;;;12.90;99.90;;;-147.18;100.00;67318.16;4981893;28;20070;-75
2022/09/19 02:44:40;;;;;;;20.60;3.92;;;12.90;99.90;;;-147.18;100.00;67318.16;4966905;28;20061;-77
2022/09/19 02:48:15;;;;;;;24.55;4.45;;;12.90;99.90;;;-147.18;100.00;67318.16;4975615;28;20043;-76
2022/09/19 02:51:46;;;;;;;19.33;4.97;;;12.80;99.90;;;-147.18;100.00;67318.16;4971453;28;20054;-76
2022/09/19 02:55:18;;;;;;;16.10;4.93;;;12.80;99.90;;;-147.18;100.00;67318.16;4985711;28;20150;-76
2022/09/19 02:58:49;;;;;;;14.38;4.20;;;12.90;99.90;;;-147.18;100.00;67318.16;4977405;28;20585;-77
2022/09/19 03:02:22;;;;;;;14.00;3.97;;;12.80;99.90;;;-147.18;100.00;67318.16;4982944;28;20071;-75
2022/09/19 03:05:54;;;;;;;18.90;4.35;;;12.80;99.90;;;-147.18;100.00;67318.16;4989257;28;20050;-75
2022/09/19 03:09:24;;;;;;;22.33;4.65;;;12.80;99.90;;;-147.18;100.00;67318.16;4968605;28;20094;-76
2022/09/19 03:12:57;;;;;;;16.08;4.07;;;12.80;99.90;;;-147.18;100.00;67318.16;4971175;28;20415;-76
2022/09/19 03:16:28;;;;;;;25.52;4.25;;;12.80;99.90;;;-147.18;100.00;67318.16;4977852;28;20042;-77
2022/09/19 03:19:57;;;;;;;19.00;3.90;;;12.80;99.90;;;-147.18;100.00;67318.16;4981908;28;20050;-77
2022/09/19 03:23:28;;;;;;;21.60;4.05;;;12.80;99.90;;;-147.18;100.00;67318.16;4981165;28;20057;-77
2022/09/19 03:26:54;;;;;;;15.57;4.50;;;12.80;99.90;;;-147.18;100.00;67318.16;4970944;28;20046;-77
2022/09/19 03:30:20;;;;;;;24.85;4.18;;;12.80;99.90;;;-147.18;100.00;67318.16;4989055;28;20085;-77
2022/09/19 03:33:48;;;;;;;22.88;4.70;;;12.90;99.90;;;-147.18;100.00;67318.16;4971013;28;20050;-77
2022/09/19 03:37:15;;;;;;;17.48;3.90;;;12.90;99.90;;;-147.18;100.00;67318.16;4952901;28;20050;-77
2022/09/19 03:40:42;;;;;;;21.52;4.70;;;12.90;99.90;;;-147.18;100.00;67318.16;4988045;28;20069;-77
2022/09/19 03:44:07;;;;;;;20.15;3.83;;;12.90;99.90;;;-147.18;100.00;67318.16;4976942;28;20047;-77
2022/09/19 03:47:35;;;;;;;15.02;3.58;;;12.90;99.90;;;-147.18;100.00;67318.16;4953041;28;20047;-77
2022/09/19 03:51:01;;;;;;;20.00;4.18;;;12.90;99.90;;;-147.18;100.00;67318.16;4991082;28;20082;-78
2022/09/19 03:54:29;;;;;;;18.98;4.05;;;12.90;99.90;;;-147.18;100.00;67318.16;4963948;28;20038;-77
2022/09/19 03:57:55;;;;;;;16.05;4.20;;;12.90;99.90;;;-147.18;100.00;67318.16;4960440;28;20089;-77
2022/09/19 04:01:21;;;;;;;17.58;3.97;;;12.90;99.90;;;-147.18;100.00;67318.16;4968029;28;20043;-77
2022/09/19 04:04:48;;;;;;;20.85;4.65;;;12.90;99.90;;;-147.18;100.00;67318.16;4965484;28;20054;-77
2022/09/19 04:08:14;;;;;;;23.70;4.20;;;12.90;99.90;;;-147.18;100.00;67318.16;4979022;28;20046;-78
2022/09/19 04:11:42;;;;;;;18.95;4.13;;;12.90;99.90;;;-147.18;100.00;67318.16;4987165;28;20046;-76
2022/09/19 04:15:09;;;;;;;21.02;4.38;;;12.80;99.90;;;-147.18;100.00;67318.16;4970659;28;20508;-76
2022/09/19 04:18:35;;;;;;;20.98;4.80;;;12.90;99.90;;;-147.18;100.00;67318.16;4971291;28;20042;-76
2022/09/19 04:22:02;;;;;;;14.27;3.78;;;12.90;99.90;;;-147.18;100.00;67318.16;4966335;28;20043;-76
2022/09/19 04:25:34;;;;;;;22.52;3.58;;;12.90;99.90;;;-147.18;100.00;67318.16;4964419;28;20132;-76
2022/09/19 04:29:08;;;;;;;20.27;3.95;;;12.80;99.90;;;-147.18;100.00;67318.16;4987192;28;20050;-76
2022/09/19 04:32:34;;;;;;;15.68;3.70;;;12.90;99.90;;;-147.18;100.00;67318.16;4984029;28;20093;-76
2022/09/19 04:36:00;;;;;;;23.65;4.75;;;12.90;99.90;;;-147.18;100.00;67318.16;4969306;28;20127;-76
2022/09/19 04:39:29;;;;;;;19.48;3.78;;;12.90;99.90;;;-147.18;100.00;67318.16;4973613;28;20138;-77
2022/09/19 04:42:56;;;;;;;14.38;3.53;;;12.80;99.90;;;-147.18;100.00;67318.16;4986802;28;20086;-76
2022/09/19 04:46:23;;;;;;;21.88;4.07;;;12.80;99.90;;;-147.18;100.00;67318.16;4971209;28;20145;-76
2022/09/19 04:49:51;;;;;;;23.42;3.97;;;12.80;99.90;;;-147.18;100.00;67318.16;4983930;28;20050;-76
2022/09/19 04:53:18;;;;;;;19.55;3.70;;;12.80;99.90;;;-147.18;100.00;67318.16;4986385;28;20406;-76
2022/09/19 04:56:48;;;;;;;17.25;4.18;;;12.80;99.90;;;-147.18;100.00;67318.16;4978895;28;20047;-76
2022/09/19 05:00:13;;;;;;;18.30;4.10;;;12.80;99.90;;;-147.18;100.00;67318.16;4984962;28;20050;-77
2022/09/19 05:03:48;;;;;;;15.02;4.15;;;12.80;99.90;;;-147.18;100.00;67318.16;4979414;28;20054;-76
2022/09/19 05:07:14;;;;;;;15.73;3.65;;;12.80;99.90;;;-147.18;100.00;67318.16;4973893;28;20502;-84
2022/09/19 05:10:41;;;;;;;20.90;4.50;;;12.80;99.90;;;-147.18;100.00;67318.16;4975601;28;20059;-83
2022/09/19 05:14:09;;;;;;;15.57;3.92;;;12.70;99.90;;;-147.18;100.00;67318.16;4961443;28;20135;-85
2022/09/19 05:17:38;;;;;;;21.95;4.93;;;12.70;99.90;;;-147.18;100.00;67318.16;4974350;28;20038;-85
2022/09/19 05:21:08;;;;;;;18.38;3.80;;;12.70;99.90;;;-147.18;100.00;67318.16;4980795;28;20567;-84
2022/09/19 05:24:37;;;;;;;20.00;4.57;;;12.70;99.90;;;-147.18;100.00;67318.16;4985055;28;20050;-82
2022/09/19 05:28:06;;;;;;;13.27;3.40;;;12.70;99.90;;;-147.18;100.00;67318.16;4965810;28;20073;-81
2022/09/19 05:31:32;;;;;;;21.60;4.00;;;12.70;99.90;;;-147.18;100.00;67318.16;4990353;28;20043;-82
2022/09/19 05:35:21;;;;;;;14.30;4.20;;;12.70;99.90;;;-147.18;100.00;67318.16;4982083;28;20051;-82
2022/09/19 05:39:13;;;;;;;15.05;4.30;;;12.70;99.90;;;-147.18;100.00;67318.16;4986812;28;20459;-81
2022/09/19 05:43:00;;;;;;;19.50;3.90;;;12.70;99.90;;;-147.18;100.00;67318.16;4990672;28;20073;-82
2022/09/19 05:46:28;;;;;;;22.00;4.70;;;12.80;99.90;;;-147.18;100.00;67318.16;4965193;28;20046;-81
2022/09/19 05:49:54;;;;;;;14.18;3.58;;;12.80;99.90;;;-147.18;100.00;67318.16;4990620;28;20158;-81
2022/09/19 05:57:25;;;;;;;14.30;3.33;;;12.80;99.90;;;-147.18;100.00;67318.16;4969773;28;20050;-83
2022/09/19 06:00:51;;;;;;;22.88;3.95;;;12.80;99.90;;;-147.18;100.00;67318.16;4985202;28;20057;-84
2022/09/19 06:04:18;;;;;;;14.38;3.28;;;12.80;99.90;;;-147.18;100.00;67318.16;4990478;28;20042;-79
2022/09/19 06:07:47;;;;;;;17.85;4.07;;;12.90;99.90;;;-147.18;100.00;67318.16;4990462;28;20057;-81
2022/09/19 06:11:13;;;;;;;13.82;3.55;;;12.90;99.90;;;-147.18;100.00;67318.16;4955931;28;20046;-78
2022/09/19 06:14:39;;;;;;;20.13;4.00;;;12.90;99.90;;;-147.18;100.00;67318.16;4986307;28;20051;-80
2022/09/19 06:18:09;;;;;;;13.65;3.88;;;12.90;99.90;;;-147.18;100.00;67318.16;4978823;28;20066;-79
2022/09/19 06:21:40;;;;;;;15.02;4.70;;;12.90;99.90;;;-147.18;100.00;67318.16;4965279;28;20042;-79
2022/09/19 06:25:08;;;;;;;18.98;4.25;;;12.90;99.90;;;-147.18;100.00;67318.16;4960991;28;20153;-78
2022/09/19 06:28:34;;;;;;;15.57;3.22;;;12.90;99.90;;;-147.18;100.00;67318.16;4980880;28;20058;-78
2022/09/19 06:32:06;;;;;;;;;;;12.90;99.90;;;-147.18;100.00;67318.16;4971883;28;20695;-78
2022/09/19 06:35:37;;;;;;;21.15;3.70;;;13.00;99.90;;;-147.18;100.00;67318.16;4982119;28;19930;-79
2022/09/19 06:39:05;;;;;;;17.85;4.30;;;13.00;99.90;;;-147.18;100.00;67318.16;4956294;28;20042;-77
2022/09/19 06:42:40;;;;;;;20.25;3.88;;;13.10;99.90;;;-147.18;100.00;67318.16;4971811;28;20050;-78
2022/09/19 06:46:26;;;;;;;19.00;3.60;;;13.00;99.90;;;-147.18;100.00;67318.16;4965869;28;20140;-77
2022/09/19 06:50:15;;;;;;;22.70;3.60;;;13.10;99.90;;;-147.18;100.00;67318.16;4970737;28;20117;-77
2022/09/19 06:53:59;;;;;;;14.07;3.65;;;13.10;99.90;;;-147.18;100.00;67318.16;4985736;28;20495;-77
2022/09/19 06:57:27;;;;;;;17.65;3.65;;;13.20;99.90;;;-147.18;100.00;67318.16;4969316;28;20518;-78
2022/09/19 07:00:53;;;;;;;17.40;3.70;;;13.20;99.90;;;-147.18;100.00;67318.16;4982416;28;20043;-80
2022/09/19 07:04:20;;;;;;;14.65;4.28;;;13.30;99.90;;;-147.18;100.00;67318.16;4984801;28;20042;-82
2022/09/19 07:08:13;;;;;;;17.52;4.35;;;13.40;99.90;;;-147.18;100.00;67318.16;4951732;28;20582;-81
2022/09/19 07:11:39;;;;;;;23.00;4.93;;;13.40;99.90;;;-147.18;100.00;67318.16;4981594;28;20073;-81
2022/09/19 07:15:08;;;;;;;21.05;4.32;;;13.50;99.90;;;-147.18;100.00;67318.16;4983122;28;20130;-82
2022/09/19 07:18:36;;;;;;;17.50;3.90;;;13.60;99.90;;;-147.18;100.00;67318.16;4968716;28;20062;-82
2022/09/19 07:22:22;;;;;;;16.08;3.83;;;13.60;99.90;;;-147.18;100.00;67318.16;4981374;28;20073;-82
2022/09/19 07:26:23;;;;;;;19.10;3.72;;;13.70;99.90;;;-147.18;100.00;67318.16;4946091;28;20039;-81
2022/09/19 07:29:51;;;;;;;15.60;4.35;;;13.80;99.90;;;-147.18;100.00;67318.16;4970827;28;20047;-82
2022/09/19 07:33:19;;;;;;;16.63;3.90;;;13.80;99.90;;;-147.18;100.00;67318.16;4956794;28;20042;-82
2022/09/19 07:36:46;;;;;;;17.27;3.33;;;13.90;99.90;;;-147.18;100.00;67318.16;4969017;28;20051;-82
2022/09/19 07:40:12;;;;;;;16.77;3.20;;;14.00;99.90;;;-147.18;100.00;67318.16;4987668;28;20046;-82
2022/09/19 07:43:44;;;;;;;;;;;14.10;99.90;;;-147.18;100.00;67318.16;4978602;28;20053;-82
2022/09/19 07:47:30;;;;;;;12.40;3.22;;;14.10;99.90;;;-147.18;100.00;67318.16;4979524;28;20004;-83
2022/09/19 07:51:08;;;;;;;15.63;3.40;;;14.20;99.90;;;-147.18;100.00;67318.16;5008896;23;20329;-91
2022/09/19 07:54:38;;;;;;;19.80;4.05;;;14.30;99.90;;;-147.18;100.00;67318.16;5017167;28;20081;-90
2022/09/19 07:58:04;;;;;;;12.98;2.85;;;14.40;99.90;;;-147.18;100.00;67318.16;5012430;28;20045;-92
2022/09/19 08:01:40;;;;;;;19.73;3.33;;;14.40;99.90;;;-147.18;100.00;67318.16;5005597;28;20056;-95
2022/09/19 08:05:09;;;;;;;20.20;3.83;;;14.40;99.90;;;-147.18;100.00;67318.16;5006850;28;20046;-91
2022/09/19 08:08:35;;;;;;;18.83;3.28;;;14.50;99.90;;;-147.18;100.00;67318.16;5007502;28;20049;-93
2022/09/19 08:12:09;;;;;;;13.82;3.25;;;14.60;99.90;;;-147.18;100.00;67318.16;5003256;28;20049;-93
2022/09/19 08:15:40;;;;;;;11.63;2.70;;;14.60;99.90;;;-147.18;100.00;67318.16;5012999;28;20049;-93
2022/09/19 08:19:11;;;;;;;16.30;2.90;;;14.70;99.90;;;-147.18;100.00;67318.16;5010716;28;20539;-90
2022/09/19 08:22:37;;;;;;;14.43;3.20;;;14.90;99.90;;;-147.18;100.00;67318.16;4997271;28;20050;-89
2022/09/19 08:26:07;;;;;;;17.98;2.83;;;14.80;99.90;;;-147.18;100.00;67318.16;5006486;28;20132;-91
2022/09/19 08:29:33;;;;;;;11.60;2.33;;;14.90;99.90;;;-147.18;100.00;67318.16;5004489;28;20050;-92
2022/09/19 08:33:07;;;;;;;13.27;2.22;;;14.90;99.90;;;-147.18;100.00;67318.16;5036608;28;20045;-92
2022/09/19 08:36:34;;;;;;;12.02;2.47;;;15.00;99.90;;;-147.18;100.00;67318.16;5028484;28;20042;-93
2022/09/19 08:40:16;;;;;;;12.52;2.28;;;15.00;99.90;;;-147.18;100.00;67318.16;5036615;28;20040;-93
2022/09/19 08:43:55;;;;;;;16.25;2.85;;;15.10;99.90;;;-147.18;100.00;67318.16;5032570;28;20037;-93
2022/09/19 08:47:31;;;;;;;12.25;2.58;;;15.20;99.90;;;-147.18;100.00;67318.16;5025121;28;20057;-91
2022/09/19 08:51:06;;;;;;;17.73;2.60;;;15.30;99.90;;;-147.18;100.00;67318.16;5018088;28;20057;-83
2022/09/19 08:54:40;;;;;;;8.85;2.38;;;15.30;99.90;;;-147.18;100.00;67318.16;5006081;28;20042;-86
2022/09/19 08:58:16;;;;;;;17.98;2.63;;;15.30;99.90;;;-147.18;100.00;67318.16;5006922;28;20129;-85
2022/09/19 09:02:06;;;;;;;14.30;2.63;;;15.40;99.90;;;-147.18;100.00;67318.16;5021219;28;20053;-87
2022/09/19 09:05:47;;;;;;;13.38;2.38;;;15.40;99.90;;;-147.18;100.00;67318.16;5013876;28;20120;-87
2022/09/19 09:09:35;;;;;;;12.90;2.67;;;15.50;99.90;;;-147.18;100.00;67318.16;5005993;28;20038;-90
2022/09/19 09:13:15;;;;;;;15.13;2.70;;;15.50;99.90;;;-147.18;100.00;67318.16;4996297;28;20048;-86
2022/09/19 09:17:01;;;;;;;12.77;2.50;;;15.60;99.90;;;-147.18;100.00;67318.16;5009729;28;20099;-87
2022/09/19 09:20:49;;;;;;;11.88;2.65;;;15.70;99.90;;;-147.18;100.00;67318.16;4999308;28;20077;-87
2022/09/19 09:24:23;;;;;;;14.98;3.08;;;15.70;99.90;;;-147.18;100.00;67318.16;5010918;28;20041;-88
2022/09/19 09:28:06;;;;;;;10.82;2.38;;;15.70;99.90;;;-147.18;100.00;67318.16;4994335;28;20136;-88
2022/09/19 09:31:47;;;;;;;13.15;2.50;;;15.70;99.90;;;-147.18;100.00;67318.16;5009318;28;20053;-87
2022/09/19 09:35:34;;;;;;;17.58;2.47;;;15.70;99.90;;;-147.18;100.00;67318.16;5009679;28;20057;-87
2022/09/19 09:39:16;;;;;;;14.02;2.35;;;15.80;99.90;;;-147.18;100.00;67318.16;5002639;28;20167;-88
2022/09/19 09:42:50;;;;;;;13.35;2.17;;;15.70;99.90;;;-147.18;100.00;67318.16;5004054;28;20049;-85
2022/09/19 09:46:31;;;;;;;12.38;2.58;;;15.80;99.90;;;-147.18;100.00;67318.16;5002678;28;20083;-85
2022/09/19 09:50:00;;;;;;;16.40;2.72;;;15.80;99.90;;;-147.18;100.00;67318.16;5010340;28;20414;-84
2022/09/19 09:53:40;;;;;;;13.68;2.40;;;15.90;99.90;;;-147.18;100.00;67318.16;5004727;28;20383;-84
2022/09/19 09:57:21;;;;;;;13.27;2.40;;;15.90;99.90;;;-147.18;100.00;67318.16;5027627;28;20497;-84
2022/09/19 10:04:47;;;;;;;11.35;2.38;;;16.00;99.90;;;-147.18;100.00;67318.16;4997645;28;20331;-85
2022/09/19 10:08:27;;;;;;;12.65;2.83;;;16.00;99.90;;;-147.18;100.00;67318.16;5013077;28;20049;-88
2022/09/19 10:12:08;;;;;;;16.45;3.08;;;16.00;99.90;;;-147.18;100.00;67318.16;5012745;28;20433;-87
2022/09/19 10:15:39;;;;;;;10.32;2.33;;;16.00;99.90;;;-147.18;100.00;67318.16;5009026;28;20046;-83
2022/09/19 10:19:22;;;;;;;14.45;2.33;;;16.00;99.90;;;-147.18;100.00;67318.16;5012941;28;20046;-82
2022/09/19 10:22:48;;;;;;;13.18;2.42;;;16.10;99.90;;;-147.18;100.00;67318.16;5013300;28;20068;-82
2022/09/19 10:26:22;;;;;;;11.38;2.00;;;16.10;99.90;;;-147.18;100.00;67318.16;5007672;28;20046;-83
2022/09/19 10:29:58;;;;;;;10.88;2.35;;;16.10;99.90;;;-147.18;100.00;67318.16;5012770;28;20048;-82
2022/09/19 10:33:28;;;;;;;10.40;1.70;;;16.10;99.90;;;-147.18;100.00;67318.16;5011775;28;20045;-83
2022/09/19 10:37:08;;;;;;;16.10;2.72;;;16.10;99.90;;;-147.18;100.00;67318.16;5009017;28;20057;-84
2022/09/19 10:40:51;;;;;;;9.95;1.98;;;16.10;99.90;;;-147.18;100.00;67318.16;5012726;28;20489;-81
2022/09/19 10:44:29;;;;;;;9.88;2.10;;;16.20;99.90;;;-147.18;100.00;67318.16;5012811;28;20048;-84
2022/09/19 10:48:18;;;;;;;11.15;1.98;;;16.20;99.90;;;-147.18;100.00;67318.16;5015387;28;20052;-88
2022/09/19 10:51:55;;;;;;;10.93;1.90;;;16.20;99.90;;;-147.18;100.00;67318.16;5001080;28;20050;-90
2022/09/19 10:55:33;;;;;;;;;;;16.30;99.90;;;-147.18;100.00;67318.16;5026520;28;20083;-86
2022/09/19 10:59:06;;;;;;;10.13;1.65;;;16.30;99.90;;;-147.18;100.00;67318.16;5012333;28;19960;-86
2022/09/19 11:02:40;;;;;;;9.27;1.85;;;16.40;99.90;;;-147.18;100.00;67318.16;5000796;28;20140;-86
2022/09/19 11:06:23;;;;;;;10.25;2.05;;;16.40;99.90;;;-147.18;100.00;67318.16;5009154;28;20043;-86
2022/09/19 11:09:59;;;;;;;9.25;1.60;;;16.50;99.90;;;-147.18;100.00;67318.16;5009187;28;20056;-85
2022/09/19 11:13:25;;;;;;;14.90;1.83;;;16.50;99.90;;;-147.18;100.00;67318.16;5004935;28;20037;-88
2022/09/19 11:17:27;;;;;;;6.25;1.65;;;16.50;99.90;;;-147.18;100.00;67318.16;5009676;28;20052;-87
2022/09/19 11:21:15;;;;;;;9.07;1.63;;;16.60;99.90;;;-147.18;100.00;67318.16;5008048;28;20064;-87
2022/09/19 11:24:59;;;;;;;14.30;2.47;;;16.60;99.90;;;-147.18;100.00;67318.16;4999673;28;20049;-86
2022/09/19 11:28:51;;;;;;;9.65;1.92;;;16.70;99.90;;;-147.18;100.00;67318.16;4992325;28;20748;-87
2022/09/19 11:32:34;;;;;;;13.48;2.05;;;16.80;99.90;;;-147.18;100.00;67318.16;4992634;28;20052;-86
2022/09/19 11:36:08;;;;;;;10.18;2.15;;;16.80;99.90;;;-147.18;100.00;67318.16;5001275;28;20103;-87
2022/09/19 11:39:50;;;;;;;11.07;2.03;;;16.80;99.90;;;-147.18;100.00;67318.16;4998166;28;20051;-87
2022/09/19 11:43:34;;;;;;;9.10;1.58;;;16.80;99.90;;;-147.18;100.00;67318.16;5001078;28;20490;-85
2022/09/19 11:47:18;;;;;;;10.10;1.60;;;16.70;99.90;;;-147.18;100.00;67318.16;5021805;28;20089;-87
2022/09/19 11:51:13;;;;;;;9.68;2.25;;;16.70;99.90;;;-147.18;100.00;67318.16;4991675;28;20049;-87
2022/09/19 11:54:59;;;;;;;11.07;1.70;;;16.60;99.90;;;-147.18;100.00;67318.16;4999145;28;20046;-87
2022/09/19 11:58:44;;;;;;;6.38;1.60;;;16.50;99.90;;;-147.18;100.00;67318.16;4993296;28;20077;-85
2022/09/19 12:02:33;;;;;;;6.43;1.30;;;16.40;99.90;;;-147.18;100.00;67318.16;5010472;28;20053;-88
2022/09/19 12:06:16;;;;;;;5.22;1.25;;;16.30;99.90;;;-147.18;100.00;67318.16;5008603;28;20056;-89
2022/09/19 12:10:14;;;;;;;3.88;1.00;;;16.50;99.90;;;-147.18;100.00;67318.16;5010267;28;20072;-88
2022/09/19 12:13:43;;;;;;;7.63;1.30;;;16.30;99.90;;;-147.18;100.00;67318.16;4996450;28;20355;-88
2022/09/19 12:17:18;;;;;;;5.90;1.10;;;16.20;99.90;;;-147.18;100.00;67318.16;5010006;28;20437;-88
2022/09/19 12:20:49;;;;;;;4.22;0.98;;;16.20;99.90;;;-147.18;100.00;67318.16;5011535;28;20045;-90
2022/09/19 12:28:15;;;;;;;4.50;0.85;;;16.10;99.90;;;-147.18;100.00;67318.16;5009687;28;20042;-90
2022/09/19 12:31:50;;;;;;;3.38;0.90;;;16.10;99.90;;;-147.18;100.00;67318.16;5006509;28;20096;-90
2022/09/19 12:35:34;;;;;;;4.03;1.00;;;16.00;99.90;;;-147.18;100.00;67318.16;5009732;28;20037;-88
2022/09/19 12:39:18;;;;;;;6.38;1.00;;;16.00;99.90;;;-147.18;100.00;67318.16;5029169;28;20140;-90
2022/09/19 12:42:54;;;;;;;6.68;1.20;;;16.00;99.90;;;-147.18;100.00;67318.16;5011358;28;20056;-90
2022/09/19 12:46:31;;;;;;;4.45;1.10;;;16.00;99.90;;;-147.18;100.00;67318.16;5011508;28;20052;-88
2022/09/19 12:50:05;;;;;;;6.03;1.20;;;16.00;99.90;;;-147.18;100.00;67318.16;5005236;28;20049;-88
2022/09/19 12:53:37;;;;;;;5.90;1.10;;;16.00;99.90;;;-147.18;100.00;67318.16;5022230;28;20045;-88
2022/09/19 12:57:09;;;;;;;7.97;1.30;;;16.00;99.90;;;-147.18;100.00;67318.16;5029015;28;20053;-88
2022/09/19 13:00:42;;;;;;;;;;;16.00;99.90;;;-147.18;100.00;67318.16;5031972;28;20048;-87
2022/09/19 13:04:21;;;;;;;;;;;16.00;99.90;;;-147.18;100.00;67318.16;5013912;28;19929;-89
2022/09/19 13:07:50;;;;;;;6.68;1.30;;;16.10;99.90;;;-147.18;100.00;67318.16;5023012;28;20012;-90
2022/09/19 13:11:26;;;;;;;7.05;1.58;;;16.10;99.90;;;-147.18;100.00;67318.16;5009340;28;20055;-90
2022/09/19 13:15:02;;;;;;;9.02;1.60;;;16.10;99.90;;;-147.18;100.00;67318.16;5009702;28;20569;-88
2022/09/19 13:26:00;;;;;;;6.68;1.67;;;16.10;99.90;;;-147.18;100.00;67318.16;5022632;28;20383;-89
2022/09/19 13:29:46;;;;;;;7.68;1.65;;;16.10;99.90;;;-147.18;100.00;67318.16;5028812;28;20049;-89
2022/09/19 13:33:49;;;;;;;8.00;1.73;;;16.10;99.90;;;-147.18;100.00;67318.16;5029237;28;20125;-89
2022/09/19 13:37:51;;;;;;;6.68;1.50;;;16.10;99.90;;;-147.18;100.00;67318.16;5015761;28;20125;-89
2022/09/19 13:41:46;;;;;;;5.82;1.38;;;16.20;99.90;;;-147.18;100.00;67318.16;4935030;29;20055;-89
2022/09/19 13:45:26;;;;;;;3.03;0.88;;;16.20;99.90;;;-147.18;100.00;67318.16;4944511;28;20051;-90
2022/09/19 13:48:55;;;;;;;8.45;1.20;;;16.20;99.90;;;-147.18;100.00;67318.16;4994793;28;20592;-91
2022/09/19 13:52:32;;;;;;;7.75;1.10;;;16.20;99.90;;;-147.18;100.00;67318.16;4997119;28;20132;-90
2022/09/19 13:56:00;;;;;;;2.95;1.10;;;16.20;99.90;;;-147.18;100.00;67318.16;5025308;28;20506;-91
2022/09/19 13:59:35;;;;;;;4.75;0.93;;;16.10;99.90;;;-147.18;100.00;67318.16;5026378;28;20041;-89
2022/09/19 14:03:02;;;;;;;5.80;1.15;;;16.10;99.90;;;-147.18;100.00;67318.16;5018080;28;20118;-90
2022/09/19 14:06:31;;;;;;;4.40;0.95;;;16.20;99.90;;;-147.18;100.00;67318.16;4998296;28;20042;-90
2022/09/19 14:10:23;;;;;;;6.97;1.35;;;16.10;99.90;;;-147.18;100.00;67318.16;5013525;28;20046;-90
2022/09/19 14:14:19;;;;;;;5.00;1.00;;;16.20;99.90;;;-147.18;100.00;67318.16;5028855;28;20414;-85
2022/09/19 14:18:33;;;;;;;10.02;1.40;;;16.20;99.90;;;-147.18;100.00;67318.16;5029949;28;20053;-96
2022/09/19 14:21:59;;;;;;;5.53;1.20;;;16.10;99.90;;;-147.18;100.00;67318.16;5027372;28;20042;-83
2022/09/19 14:25:43;;;;;;;5.32;1.67;;;16.20;99.90;;;-147.18;100.00;67318.16;5029059;28;20044;-84
2022/09/19 14:29:36;;;;;;;6.80;1.10;;;16.30;99.90;;;-147.18;100.00;67318.16;5018808;28;20100;-84
2022/09/19 14:33:26;;;;;;;4.05;1.10;;;16.30;99.90;;;-147.18;100.00;67318.16;5010916;28;20372;-84
2022/09/19 14:37:26;;;;;;;4.90;1.40;;;16.30;99.90;;;-147.18;100.00;67318.16;5027484;28;20132;-84
2022/09/19 14:41:18;;;;;;;6.10;1.17;;;16.30;99.90;;;-147.18;100.00;67318.16;5019378;28;20048;-89
2022/09/19 14:45:25;;;;;;;7.72;1.45;;;16.30;99.90;;;-147.18;100.00;67318.16;5002883;28;20041;-87
2022/09/19 14:48:59;;;;;;;6.85;1.50;;;16.30;99.90;;;-147.18;100.00;67318.16;5006476;28;20060;-87
2022/09/19 14:52:37;;;;;;;7.55;1.30;;;16.30;99.90;;;-147.18;100.00;67318.16;5026196;28;20175;-86
2022/09/19 14:56:08;;;;;;;9.45;1.48;;;16.30;99.90;;;-147.18;100.00;67318.16;5007631;28;20104;-86
2022/09/19 14:59:35;;;;;;;5.60;1.40;;;16.30;99.90;;;-147.18;100.00;67318.16;5022595;28;20124;-86